createdAt,value
2022-12-16T00:01:42.544Z,96.13
2022-12-16T00:04:09.484Z,96.03
2022-12-16T00:06:36.161Z,91.52
2022-12-16T00:09:03.242Z,94.69
2022-12-16T00:11:47.525Z,95.54
2022-12-16T00:14:14.437Z,93.77
2022-12-16T00:16:41.388Z,94.62
2022-12-16T00:19:08.241Z,97.07
2022-12-16T00:21:37.987Z,91.07
2022-12-16T00:24:04.941Z,90.91
2022-12-16T00:26:31.860Z,88.71
2022-12-16T00:28:58.705Z,87.39
2022-12-16T00:31:25.438Z,90.07
2022-12-16T00:33:56.442Z,88.16
2022-12-16T00:36:23.340Z,90.16
2022-12-16T00:38:52.486Z,94.70
2022-12-16T00:41:22.426Z,92.35
2022-12-16T00:43:49.245Z,89.45
2022-12-16T00:46:15.986Z,93.54
2022-12-16T00:48:42.959Z,92.75
2022-12-16T00:51:12.726Z,95.64
2022-12-16T00:53:39.557Z,93.65
2022-12-16T00:56:07.553Z,95.51
2022-12-16T00:58:35.408Z,93.94
2022-12-16T01:01:09.286Z,97.40
2022-12-16T01:03:36.939Z,96.19
2022-12-16T01:06:15.579Z,98.82
2022-12-16T01:08:48.895Z,99.36
2022-12-16T01:11:18.197Z,100.00
2022-12-16T01:13:46.397Z,99.11
2022-12-16T01:16:13.417Z,99.17
2022-12-16T01:18:40.328Z,100.00
2022-12-16T01:21:15.570Z,100.00
2022-12-16T01:23:42.630Z,100.00
2022-12-16T01:26:10.925Z,100.00
2022-12-16T01:28:37.759Z,100.00
2022-12-16T01:31:12.578Z,100.00
2022-12-16T01:33:39.726Z,97.82
2022-12-16T01:36:08.095Z,96.12
2022-12-16T01:38:36.156Z,98.79
2022-12-16T01:41:05.535Z,92.98
2022-12-16T01:43:35.996Z,95.17
2022-12-16T01:46:12.185Z,93.98
2022-12-16T01:48:41.785Z,96.17
2022-12-16T01:51:14.738Z,97.09
2022-12-16T01:53:42.821Z,94.06
2022-12-16T01:56:11.071Z,93.58
2022-12-16T01:58:39.033Z,89.09
2022-12-16T02:01:05.969Z,92.87
2022-12-16T02:03:36.770Z,92.09
2022-12-16T02:06:06.224Z,91.85
2022-12-16T02:08:33.235Z,92.17
2022-12-16T02:11:34.008Z,97.23
2022-12-16T02:14:12.751Z,95.20
2022-12-16T02:16:59.971Z,96.78
2022-12-16T02:19:48.383Z,93.69
2022-12-16T02:22:21.297Z,93.88
2022-12-16T02:25:06.872Z,93.72
2022-12-16T02:28:01.652Z,96.33
2022-12-16T02:30:52.142Z,93.61
2022-12-16T02:33:22.488Z,96.97
2022-12-16T02:35:52.073Z,95.51
2022-12-16T02:38:39.778Z,100.00
2022-12-16T02:41:17.364Z,100.00
2022-12-16T02:43:44.158Z,94.82
2022-12-16T02:46:10.876Z,92.31
2022-12-16T02:48:37.792Z,93.56
2022-12-16T02:51:04.549Z,91.99
2022-12-16T02:53:35.679Z,89.32
2022-12-16T02:56:19.457Z,90.79
2022-12-16T02:58:52.653Z,90.96
2022-12-16T03:02:02.365Z,96.21
2022-12-16T03:04:39.265Z,91.85
2022-12-16T03:07:08.272Z,89.15
2022-12-16T03:09:38.642Z,95.02
2022-12-16T03:12:10.015Z,92.75
2022-12-16T03:14:39.835Z,95.01
2022-12-16T03:17:08.536Z,95.16
2022-12-16T03:19:36.676Z,96.54
2022-12-16T03:22:16.099Z,92.47
2022-12-16T03:24:43.277Z,88.46
2022-12-16T03:27:31.315Z,89.90
2022-12-16T03:30:12.714Z,94.20
2022-12-16T03:33:08.845Z,93.77
2022-12-16T03:35:41.081Z,92.36
2022-12-16T03:38:10.832Z,95.57
2022-12-16T03:40:40.223Z,100.00
2022-12-16T03:43:07.672Z,97.57
2022-12-16T03:45:39.448Z,99.40
2022-12-16T03:48:11.217Z,100.00
2022-12-16T03:50:50.364Z,98.25
2022-12-16T03:53:17.213Z,100.00
2022-12-16T03:55:43.838Z,100.00
2022-12-16T03:58:10.692Z,100.00
2022-12-16T04:00:48.098Z,100.00
2022-12-16T04:03:15.172Z,100.00
2022-12-16T04:05:42.170Z,100.00
2022-12-16T04:08:08.824Z,100.00
2022-12-16T04:10:55.278Z,99.83
2022-12-16T04:13:51.333Z,96.17
2022-12-16T04:16:36.989Z,98.20
2022-12-16T04:19:22.769Z,97.22
2022-12-16T04:22:09.080Z,98.14
2022-12-16T04:24:36.341Z,98.19
2022-12-16T04:27:21.656Z,96.93
2022-12-16T04:30:10.321Z,91.98
2022-12-16T04:32:55.727Z,91.85
2022-12-16T04:35:41.341Z,91.26
2022-12-16T04:38:26.829Z,92.45
2022-12-16T04:41:21.191Z,87.97
2022-12-16T04:44:07.010Z,91.68
2022-12-16T04:46:52.736Z,88.93
2022-12-16T04:49:49.062Z,95.87
2022-12-16T04:52:34.684Z,89.53
2022-12-16T04:55:20.314Z,85.46
2022-12-16T04:58:16.689Z,86.68
2022-12-16T05:01:03.833Z,92.85
2022-12-16T05:03:49.593Z,91.41
2022-12-16T05:06:35.769Z,94.85
2022-12-16T05:09:22.020Z,93.63
2022-12-16T05:12:08.142Z,81.01
2022-12-16T05:14:53.850Z,84.83
2022-12-16T05:17:40.276Z,85.46
2022-12-16T05:20:26.317Z,90.29
2022-12-16T05:23:15.395Z,85.63
2022-12-16T05:26:01.008Z,82.73
2022-12-16T05:28:46.586Z,80.67
2022-12-16T05:31:36.183Z,84.54
2022-12-16T05:34:21.888Z,86.20
2022-12-16T05:37:07.360Z,78.19
2022-12-16T05:39:53.980Z,77.12
2022-12-16T05:42:39.743Z,75.09
2022-12-16T05:45:25.176Z,79.21
2022-12-16T05:48:10.707Z,78.18
2022-12-16T05:51:04.341Z,75.60
2022-12-16T05:53:49.985Z,80.91
2022-12-16T05:56:35.623Z,79.82
2022-12-16T05:59:21.246Z,90.59
2022-12-16T06:02:06.921Z,83.90
2022-12-16T06:04:52.615Z,84.99
2022-12-16T06:07:38.247Z,82.17
2022-12-16T06:10:23.711Z,81.74
2022-12-16T06:13:09.383Z,87.62
2022-12-16T06:15:55.001Z,83.29
2022-12-16T06:18:40.449Z,81.76
2022-12-16T06:21:26.183Z,77.14
2022-12-16T06:24:11.684Z,77.89
2022-12-16T06:26:57.346Z,71.04
2022-12-16T06:29:42.870Z,72.59
2022-12-16T06:32:28.468Z,72.26
2022-12-16T06:35:14.180Z,71.68
2022-12-16T06:37:59.670Z,71.25
2022-12-16T06:40:45.286Z,73.94
2022-12-16T06:43:31.104Z,68.61
2022-12-16T06:46:17.076Z,70.50
2022-12-16T06:49:02.653Z,69.69
2022-12-16T06:51:48.107Z,67.92
2022-12-16T06:54:33.827Z,69.61
2022-12-16T06:57:19.341Z,67.88
2022-12-16T07:00:04.787Z,63.98
2022-12-16T07:02:50.761Z,68.66
2022-12-16T07:05:36.083Z,70.11
2022-12-16T07:08:21.797Z,70.71
2022-12-16T07:11:16.011Z,69.84
2022-12-16T07:14:02.461Z,71.11
2022-12-16T07:16:47.993Z,67.76
2022-12-16T07:19:33.655Z,68.20
2022-12-16T07:22:19.271Z,64.57
2022-12-16T07:25:05.551Z,67.31
2022-12-16T07:27:50.795Z,66.12
2022-12-16T07:30:36.520Z,68.91
2022-12-16T07:33:23.449Z,73.33
2022-12-16T07:36:11.647Z,74.68
2022-12-16T07:39:03.756Z,77.38
2022-12-16T07:41:49.179Z,79.29
2022-12-16T07:44:34.822Z,76.70
2022-12-16T07:47:20.558Z,78.77
2022-12-16T07:50:06.075Z,78.62
2022-12-16T07:52:51.885Z,73.74
2022-12-16T07:55:37.581Z,72.54
2022-12-16T07:58:23.152Z,69.14
2022-12-16T08:01:09.801Z,70.56
2022-12-16T08:03:55.917Z,71.33
2022-12-16T08:06:41.604Z,71.86
2022-12-16T08:09:27.193Z,71.73
2022-12-16T08:12:12.963Z,73.29
2022-12-16T08:14:58.585Z,71.85
2022-12-16T08:17:44.140Z,70.35
2022-12-16T08:20:29.960Z,69.92
2022-12-16T08:23:15.680Z,75.41
2022-12-16T08:26:01.254Z,76.82
2022-12-16T08:28:46.872Z,80.77
2022-12-16T08:31:39.928Z,77.44
2022-12-16T08:34:25.489Z,75.76
2022-12-16T08:37:11.295Z,81.02
2022-12-16T08:40:25.762Z,76.57
2022-12-16T08:43:07.863Z,75.23
2022-12-16T08:45:56.775Z,75.37
2022-12-16T08:48:42.416Z,73.08
2022-12-16T08:51:27.972Z,71.98
2022-12-16T08:54:13.472Z,68.70
2022-12-16T08:56:59.141Z,72.80
2022-12-16T08:59:44.935Z,75.88
2022-12-16T09:02:30.746Z,76.71
2022-12-16T09:05:16.863Z,72.88
2022-12-16T09:08:02.488Z,72.18
2022-12-16T09:10:48.054Z,72.36
2022-12-16T09:13:35.018Z,74.18
2022-12-16T09:16:21.241Z,71.94
2022-12-16T09:19:06.914Z,73.89
2022-12-16T09:21:52.912Z,77.25
2022-12-16T09:24:40.094Z,77.11
2022-12-16T09:27:25.556Z,78.83
2022-12-16T09:30:10.862Z,78.71
2022-12-16T09:33:00.810Z,76.21
2022-12-16T09:35:46.372Z,76.25
2022-12-16T09:38:31.955Z,76.95
2022-12-16T09:41:26.731Z,76.05
2022-12-16T09:44:28.112Z,76.56
2022-12-16T09:47:26.873Z,76.88
2022-12-16T09:53:58.229Z,81.05
2022-12-16T09:56:52.357Z,78.99
2022-12-16T09:59:47.416Z,77.65
2022-12-16T10:02:34.779Z,75.91
2022-12-16T10:05:20.914Z,76.38
2022-12-16T10:08:38.994Z,75.42
2022-12-16T10:11:32.510Z,77.90
2022-12-16T10:14:24.323Z,76.88
2022-12-16T10:17:31.836Z,75.61
2022-12-16T10:20:55.164Z,76.71
2022-12-16T10:24:07.100Z,76.34
2022-12-16T10:27:04.748Z,75.11
2022-12-16T10:29:51.940Z,79.54
2022-12-16T10:32:51.223Z,84.72
2022-12-16T10:35:47.891Z,82.04
2022-12-16T10:38:47.882Z,78.33
2022-12-16T10:41:33.886Z,76.96
2022-12-16T10:44:19.449Z,74.99
2022-12-16T10:47:05.273Z,73.26
2022-12-16T10:49:55.046Z,72.37
2022-12-16T10:52:40.431Z,70.17
2022-12-16T10:55:44.466Z,71.90
2022-12-16T10:58:35.925Z,69.60
2022-12-16T11:01:40.111Z,71.61
2022-12-16T11:04:49.399Z,70.21
2022-12-16T11:08:03.912Z,72.66
2022-12-16T11:10:51.935Z,74.62
2022-12-16T11:13:44.283Z,75.21
2022-12-16T11:16:39.737Z,75.51
2022-12-16T11:19:39.555Z,76.88
2022-12-16T11:22:38.082Z,77.31
2022-12-16T11:25:24.262Z,76.04
2022-12-16T11:28:23.732Z,76.90
2022-12-16T11:31:14.435Z,78.69
2022-12-16T11:34:01.324Z,83.09
2022-12-16T11:36:46.748Z,81.17
2022-12-16T11:39:37.483Z,80.94
2022-12-16T11:42:24.073Z,79.46
2022-12-16T11:45:14.903Z,77.20
2022-12-16T11:48:13.498Z,79.23
2022-12-16T11:51:06.227Z,78.59
2022-12-16T11:53:57.019Z,73.59
2022-12-16T11:56:45.313Z,77.65
2022-12-16T12:00:06.316Z,79.30
2022-12-16T12:03:13.793Z,76.11
2022-12-16T12:06:17.436Z,77.85
2022-12-16T12:09:24.092Z,70.46
2022-12-16T12:12:35.741Z,73.06
2022-12-16T12:15:34.269Z,72.97
2022-12-16T12:18:39.557Z,69.50
2022-12-16T12:21:37.332Z,68.26
2022-12-16T12:24:31.521Z,68.22
2022-12-16T12:27:31.944Z,72.08
2022-12-16T12:30:25.440Z,71.86
2022-12-16T12:33:38.885Z,72.41
2022-12-16T12:36:52.467Z,70.02
2022-12-16T12:40:03.841Z,71.50
2022-12-16T12:43:08.599Z,73.44
2022-12-16T12:46:02.260Z,72.45
2022-12-16T12:48:59.712Z,72.20
2022-12-16T12:51:49.618Z,71.37
2022-12-16T12:54:40.814Z,68.93
2022-12-16T12:57:27.946Z,71.04
2022-12-16T13:00:34.331Z,72.83
2022-12-16T13:03:38.117Z,71.69
2022-12-16T13:06:24.877Z,72.03
2022-12-16T13:09:10.444Z,72.01
2022-12-16T13:11:56.531Z,70.37
2022-12-16T13:14:51.404Z,69.55
2022-12-16T13:17:40.643Z,69.78
2022-12-16T13:20:57.149Z,68.30
2022-12-16T13:23:57.768Z,65.79
2022-12-16T13:26:48.329Z,66.76
2022-12-16T13:29:42.508Z,63.93
2022-12-16T13:32:30.798Z,64.80
2022-12-16T13:35:19.661Z,64.23
2022-12-16T13:38:21.969Z,63.52
2022-12-16T13:41:13.368Z,62.46
2022-12-16T13:44:28.949Z,62.07
2022-12-16T13:47:15.030Z,62.42
2022-12-16T13:50:12.630Z,60.47
2022-12-16T13:53:13.679Z,63.85
2022-12-16T13:56:19.363Z,64.77
2022-12-16T13:59:07.891Z,66.66
2022-12-16T14:02:15.664Z,69.68
2022-12-16T14:05:10.786Z,68.49
2022-12-16T14:07:59.750Z,67.62
2022-12-16T14:10:50.651Z,65.08
2022-12-16T14:13:55.040Z,69.26
2022-12-16T14:16:43.372Z,68.93
2022-12-16T14:19:34.611Z,69.59
2022-12-16T14:22:35.297Z,67.35
2022-12-16T14:25:33.448Z,68.36
2022-12-16T14:28:19.186Z,66.29
2022-12-16T14:31:04.638Z,68.48
2022-12-16T14:33:50.192Z,69.22
2022-12-16T14:36:40.903Z,68.17
2022-12-16T14:39:39.679Z,68.73
2022-12-16T14:42:39.059Z,65.60
2022-12-16T14:45:34.893Z,65.75
2022-12-16T14:48:22.923Z,67.95
2022-12-16T14:51:27.972Z,67.57
2022-12-16T14:54:13.334Z,64.84
2022-12-16T14:56:58.670Z,66.78
2022-12-16T14:59:44.217Z,66.21
2022-12-16T15:02:49.206Z,68.31
2022-12-16T15:05:34.673Z,71.68
2022-12-16T15:08:20.016Z,71.42
2022-12-16T15:11:26.050Z,72.34
2022-12-16T15:14:14.046Z,70.19
2022-12-16T15:16:59.395Z,70.43
2022-12-16T15:19:44.831Z,71.70
2022-12-16T15:22:33.932Z,67.46
2022-12-16T15:25:19.793Z,66.09
2022-12-16T15:28:15.478Z,67.18
2022-12-16T15:31:04.057Z,70.70
2022-12-16T15:33:55.277Z,71.01
2022-12-16T15:36:47.162Z,75.81
2022-12-16T15:39:53.435Z,75.03
2022-12-16T15:42:39.076Z,75.83
2022-12-16T15:45:34.196Z,76.97
2022-12-16T15:48:46.209Z,77.92
2022-12-16T15:51:49.635Z,72.16
2022-12-16T15:54:40.241Z,74.01
2022-12-16T15:57:45.289Z,77.10
2022-12-16T16:00:57.185Z,74.05
2022-12-16T16:03:45.422Z,69.93
2022-12-16T16:06:43.582Z,69.54
2022-12-16T16:09:43.879Z,69.50
2022-12-16T16:12:34.030Z,69.12
2022-12-16T16:15:19.553Z,72.11
2022-12-16T16:18:07.583Z,72.70
2022-12-16T16:20:52.920Z,70.23
2022-12-16T16:23:38.458Z,71.77
2022-12-16T16:26:24.100Z,73.29
2022-12-16T16:29:09.595Z,79.56
2022-12-16T16:31:58.195Z,74.78
2022-12-16T16:34:46.189Z,75.64
2022-12-16T16:37:36.859Z,71.66
2022-12-16T16:40:49.319Z,75.27
2022-12-16T16:43:35.365Z,71.64
2022-12-16T16:46:21.527Z,73.81
2022-12-16T16:49:07.107Z,72.56
2022-12-16T16:51:52.672Z,72.07
2022-12-16T16:54:38.113Z,73.70
2022-12-16T16:57:23.569Z,75.86
2022-12-16T17:00:08.717Z,75.59
2022-12-16T17:02:54.520Z,74.59
2022-12-16T17:05:40.108Z,77.83
2022-12-16T17:08:25.573Z,76.97
2022-12-16T17:11:11.186Z,78.43
2022-12-16T17:13:56.395Z,78.71
2022-12-16T17:16:42.039Z,80.11
2022-12-16T17:19:27.309Z,80.99
2022-12-16T17:22:12.599Z,81.31
2022-12-16T17:24:58.087Z,82.72
2022-12-16T17:27:44.607Z,77.65
2022-12-16T17:30:35.237Z,75.83
2022-12-16T17:33:20.829Z,74.00
2022-12-16T17:36:10.534Z,75.44
2022-12-16T17:39:01.808Z,73.69
2022-12-16T17:41:49.085Z,71.26
2022-12-16T17:44:34.245Z,71.42
2022-12-16T17:47:19.667Z,71.83
2022-12-16T17:50:05.116Z,75.21
2022-12-16T17:52:50.694Z,76.90
2022-12-16T17:55:36.063Z,77.43
2022-12-16T17:58:21.314Z,78.00
2022-12-16T18:01:07.011Z,74.85
2022-12-16T18:03:52.512Z,72.59
2022-12-16T18:06:39.091Z,70.85
2022-12-16T18:09:24.604Z,68.81
2022-12-16T18:12:10.025Z,71.12
2022-12-16T18:14:55.658Z,70.44
2022-12-16T18:17:41.137Z,71.38
2022-12-16T18:20:26.860Z,66.86
2022-12-16T18:23:12.983Z,67.72
2022-12-16T18:25:58.525Z,67.64
2022-12-16T18:28:44.156Z,68.01
2022-12-16T18:31:29.696Z,68.51
2022-12-16T18:34:15.312Z,69.82
2022-12-16T18:37:00.981Z,67.33
2022-12-16T18:39:46.160Z,69.47
2022-12-16T18:42:31.943Z,69.50
2022-12-16T18:45:17.516Z,72.26
2022-12-16T18:48:03.184Z,74.09
2022-12-16T18:50:48.533Z,71.43
2022-12-16T18:53:34.206Z,74.34
2022-12-16T18:56:21.761Z,73.03
2022-12-16T18:59:07.229Z,74.80
2022-12-16T19:01:52.940Z,71.57
2022-12-16T19:04:38.695Z,72.36
2022-12-16T19:07:24.188Z,74.18
2022-12-16T19:10:09.778Z,73.14
2022-12-16T19:12:55.235Z,73.23
2022-12-16T19:15:41.723Z,75.64
2022-12-16T19:18:27.634Z,74.87
2022-12-16T19:21:16.242Z,80.84
2022-12-16T19:24:01.929Z,77.11
2022-12-16T19:26:47.314Z,75.99
2022-12-16T19:29:32.819Z,72.45
2022-12-16T19:32:18.472Z,70.63
2022-12-16T19:35:03.932Z,72.90
2022-12-16T19:37:49.560Z,76.77
2022-12-16T19:40:35.424Z,73.19
2022-12-16T19:43:20.882Z,78.74
2022-12-16T19:46:13.117Z,75.78
2022-12-16T19:48:59.385Z,73.36
2022-12-16T19:51:44.992Z,73.81
2022-12-16T19:54:30.446Z,76.87
2022-12-16T19:57:16.038Z,75.45
2022-12-16T20:00:01.641Z,76.09
2022-12-16T20:02:47.666Z,77.04
2022-12-16T20:05:33.673Z,76.86
2022-12-16T20:08:19.163Z,75.59
2022-12-16T20:11:04.884Z,74.92
2022-12-16T20:13:50.532Z,75.89
2022-12-16T20:16:37.267Z,77.49
2022-12-16T20:19:22.978Z,80.86
2022-12-16T20:22:11.870Z,82.58
2022-12-16T20:24:58.492Z,76.83
2022-12-16T20:27:44.303Z,79.58
2022-12-16T20:30:30.472Z,84.36
2022-12-16T20:33:16.166Z,83.57
2022-12-16T20:36:01.653Z,78.01
2022-12-16T20:38:47.212Z,75.33
2022-12-16T20:41:33.020Z,74.40
2022-12-16T20:44:18.586Z,77.21
2022-12-16T20:47:04.027Z,76.20
2022-12-16T20:49:49.562Z,75.05
2022-12-16T20:52:35.115Z,79.78
2022-12-16T20:55:20.655Z,81.09
2022-12-16T20:58:06.032Z,80.14
2022-12-16T21:00:51.659Z,76.05
2022-12-16T21:03:37.399Z,75.33
2022-12-16T21:06:24.503Z,77.15
2022-12-16T21:09:09.946Z,79.15
2022-12-16T21:12:15.319Z,81.50
2022-12-16T21:15:00.441Z,82.72
2022-12-16T21:17:45.873Z,82.92
2022-12-16T21:20:31.478Z,79.10
2022-12-16T21:23:31.746Z,77.92
2022-12-16T21:26:19.840Z,78.00
2022-12-16T21:29:05.980Z,77.03
2022-12-16T21:31:51.635Z,78.49
2022-12-16T21:34:39.298Z,75.16
2022-12-16T21:37:24.718Z,76.89
2022-12-16T21:40:10.358Z,77.25
2022-12-16T21:42:56.304Z,79.38
2022-12-16T21:45:42.026Z,85.03
2022-12-16T21:48:30.187Z,83.60
2022-12-16T21:51:15.761Z,81.96
2022-12-16T21:54:04.897Z,85.29
2022-12-16T21:56:53.243Z,82.65
2022-12-16T21:59:42.045Z,82.46
2022-12-16T22:02:31.206Z,83.69
2022-12-16T22:05:16.695Z,78.68
2022-12-16T22:08:02.489Z,78.66
2022-12-16T22:10:47.871Z,78.38
2022-12-16T22:13:33.471Z,75.16
2022-12-16T22:16:19.012Z,77.64
2022-12-16T22:19:04.492Z,78.35
2022-12-16T22:21:50.163Z,76.35
2022-12-16T22:24:35.698Z,74.52
2022-12-16T22:27:21.320Z,71.92
2022-12-16T22:30:06.936Z,75.48
2022-12-16T22:32:52.522Z,82.79
2022-12-16T22:35:41.991Z,84.79
2022-12-16T22:38:27.431Z,85.81
2022-12-16T22:41:14.529Z,87.09
2022-12-16T22:44:00.238Z,82.90
2022-12-16T22:46:45.919Z,79.11
2022-12-16T22:49:31.908Z,78.27
2022-12-16T22:52:17.715Z,79.37
2022-12-16T22:55:03.245Z,75.39
2022-12-16T22:57:50.842Z,77.29
2022-12-16T23:00:37.437Z,76.78
2022-12-16T23:03:22.968Z,81.45
2022-12-16T23:06:08.632Z,81.22
2022-12-16T23:08:55.235Z,82.66
2022-12-16T23:11:45.313Z,84.59
2022-12-16T23:14:30.684Z,80.17
2022-12-16T23:17:16.276Z,76.62
2022-12-16T23:20:01.760Z,79.44
2022-12-16T23:22:47.374Z,78.19
2022-12-16T23:25:32.839Z,85.31
2022-12-16T23:28:18.089Z,82.20
2022-12-16T23:31:03.655Z,84.16
2022-12-16T23:33:48.985Z,83.18
2022-12-16T23:36:34.643Z,84.08
2022-12-16T23:39:20.221Z,84.00
2022-12-16T23:42:05.881Z,82.28
2022-12-16T23:44:55.321Z,83.04
2022-12-16T23:47:41.924Z,82.64
2022-12-16T23:50:27.598Z,83.93
2022-12-16T23:53:28.400Z,83.43
2022-12-16T23:56:14.906Z,81.54
2022-12-16T23:59:00.376Z,82.17
